sensor_id;sensor_type;location;lat;lon;timestamp;pressure;altitude;pressure_sealevel;temperature;humidity
34586;BME280;20816;50.950;11.108;2023-02-01T00:01:09;98510.19;;;3.49;100.00
34586;BME280;20816;50.950;11.108;2023-02-01T00:03:35;98511.03;;;3.46;100.00
34586;BME280;20816;50.950;11.108;2023-02-01T00:06:03;98516.25;;;3.46;100.00
34586;BME280;20816;50.950;11.108;2023-02-01T00:08:29;98511.91;;;3.42;100.00
34586;BME280;20816;50.950;11.108;2023-02-01T00:11:01;98519.63;;;3.33;100.00
34586;BME280;20816;50.950;11.108;2023-02-01T00:13:30;98515.34;;;3.36;100.00
34586;BME280;20816;50.950;11.108;2023-02-01T00:16:21;98516.19;;;3.34;100.00
34586;BME280;20816;50.950;11.108;2023-02-01T00:18:50;98523.13;;;3.35;100.00
34586;BME280;20816;50.950;11.108;2023-02-01T00:21:19;98530.97;;;3.43;100.00
34586;BME280;20816;50.950;11.108;2023-02-01T00:23:46;98521.41;;;3.38;100.00
34586;BME280;20816;50.950;11.108;2023-02-01T00:26:19;98530.09;;;3.48;100.00
34586;BME280;20816;50.950;11.108;2023-02-01T00:28:48;98519.75;;;3.57;100.00
34586;BME280;20816;50.950;11.108;2023-02-01T00:31:15;98524.94;;;3.57;100.00
34586;BME280;20816;50.950;11.108;2023-02-01T00:33:41;98528.44;;;3.62;100.00
34586;BME280;20816;50.950;11.108;2023-02-01T00:36:09;98527.63;;;3.73;100.00
34586;BME280;20816;50.950;11.108;2023-02-01T00:38:37;98524.19;;;3.80;100.00
34586;BME280;20816;50.950;11.108;2023-02-01T00:41:16;98527.66;;;3.79;100.00
34586;BME280;20816;50.950;11.108;2023-02-01T00:43:44;98533.72;;;3.76;100.00
34586;BME280;20816;50.950;11.108;2023-02-01T00:46:13;98517.22;;;3.74;100.00
34586;BME280;20816;50.950;11.108;2023-02-01T00:48:40;98519.81;;;3.71;100.00
34586;BME280;20816;50.950;11.108;2023-02-01T00:51:10;98525.88;;;3.73;100.00
34586;BME280;20816;50.950;11.108;2023-02-01T00:53:37;98517.19;;;3.60;100.00
34586;BME280;20816;50.950;11.108;2023-02-01T00:56:05;98519.81;;;3.67;100.00
34586;BME280;20816;50.950;11.108;2023-02-01T00:58:32;98526.78;;;3.77;100.00
34586;BME280;20816;50.950;11.108;2023-02-01T01:01:09;98520.72;;;3.76;100.00
34586;BME280;20816;50.950;11.108;2023-02-01T01:03:38;98521.63;;;3.87;100.00
34586;BME280;20816;50.950;11.108;2023-02-01T01:06:14;98520.78;;;3.93;100.00
34586;BME280;20816;50.950;11.108;2023-02-01T01:08:42;98497.38;;;3.93;100.00
34586;BME280;20816;50.950;11.108;2023-02-01T01:11:11;98513.84;;;3.92;100.00
34586;BME280;20816;50.950;11.108;2023-02-01T01:13:39;98498.25;;;4.00;100.00
34586;BME280;20816;50.950;11.108;2023-02-01T01:16:06;98483.50;;;3.91;100.00
34586;BME280;20816;50.950;11.108;2023-02-01T01:18:34;98493.00;;;3.87;100.00
34586;BME280;20816;50.950;11.108;2023-02-01T01:21:01;98498.25;;;3.92;100.00
34586;BME280;20816;50.950;11.108;2023-02-01T01:23:29;98492.19;;;3.93;100.00
34586;BME280;20816;50.950;11.108;2023-02-01T01:25:56;98487.88;;;4.03;100.00
34586;BME280;20816;50.950;11.108;2023-02-01T01:28:23;98493.91;;;3.97;100.00
34586;BME280;20816;50.950;11.108;2023-02-01T01:30:49;98492.16;;;3.98;100.00
34586;BME280;20816;50.950;11.108;2023-02-01T01:33:16;98496.53;;;4.00;100.00
34586;BME280;20816;50.950;11.108;2023-02-01T01:35:42;98487.88;;;4.00;100.00
34586;BME280;20816;50.950;11.108;2023-02-01T01:38:10;98487.00;;;4.05;100.00
34586;BME280;20816;50.950;11.108;2023-02-01T01:40:37;98493.06;;;4.06;100.00
34586;BME280;20816;50.950;11.108;2023-02-01T01:43:15;98493.94;;;4.09;100.00
34586;BME280;20816;50.950;11.108;2023-02-01T01:45:43;98502.63;;;4.08;100.00
34586;BME280;20816;50.950;11.108;2023-02-01T01:48:17;98495.69;;;4.15;100.00
34586;BME280;20816;50.950;11.108;2023-02-01T01:50:51;98486.13;;;4.14;100.00
34586;BME280;20816;50.950;11.108;2023-02-01T01:53:24;98487.00;;;4.14;100.00
34586;BME280;20816;50.950;11.108;2023-02-01T01:55:53;98490.50;;;4.19;99.65
34586;BME280;20816;50.950;11.108;2023-02-01T01:58:23;98481.84;;;4.17;100.00
34586;BME280;20816;50.950;11.108;2023-02-01T02:00:53;98474.03;;;4.16;100.00
34586;BME280;20816;50.950;11.108;2023-02-01T02:03:23;98480.06;;;4.13;99.45
34586;BME280;20816;50.950;11.108;2023-02-01T02:05:53;98461.88;;;4.16;98.77
34586;BME280;20816;50.950;11.108;2023-02-01T02:08:22;98466.19;;;4.02;99.44
34586;BME280;20816;50.950;11.108;2023-02-01T02:10:51;98459.25;;;4.01;99.48
34586;BME280;20816;50.950;11.108;2023-02-01T02:13:32;98469.63;;;3.95;99.08
34586;BME280;20816;50.950;11.108;2023-02-01T02:16:13;98465.31;;;3.92;98.88
34586;BME280;20816;50.950;11.108;2023-02-01T02:18:53;98454.03;;;3.98;98.48
34586;BME280;20816;50.950;11.108;2023-02-01T02:32:47;98450.53;;;3.78;100.00
34586;BME280;20816;50.950;11.108;2023-02-01T02:38:18;98446.22;;;3.84;100.00
34586;BME280;20816;50.950;11.108;2023-02-01T02:43:22;98457.47;;;3.79;100.00
34586;BME280;20816;50.950;11.108;2023-02-01T02:46:30;98446.19;;;3.69;100.00
34586;BME280;20816;50.950;11.108;2023-02-01T02:51:51;98446.13;;;3.54;100.00
34586;BME280;20816;50.950;11.108;2023-02-01T02:54:41;98453.91;;;3.55;100.00
34586;BME280;20816;50.950;11.108;2023-02-01T02:57:17;98447.81;;;3.46;100.00
34586;BME280;20816;50.950;11.108;2023-02-01T03:00:07;98452.16;;;3.48;100.00
34586;BME280;20816;50.950;11.108;2023-02-01T03:02:54;98431.44;;;3.60;100.00
34586;BME280;20816;50.950;11.108;2023-02-01T03:05:43;98434.00;;;3.56;100.00
34586;BME280;20816;50.950;11.108;2023-02-01T03:08:13;98420.16;;;3.58;100.00
34586;BME280;20816;50.950;11.108;2023-02-01T03:11:06;98431.41;;;3.51;100.00
34586;BME280;20816;50.950;11.108;2023-02-01T03:13:52;98416.69;;;3.56;100.00
34586;BME280;20816;50.950;11.108;2023-02-01T03:16:31;98430.53;;;3.57;100.00
34586;BME280;20816;50.950;11.108;2023-02-01T03:21:35;98440.13;;;3.69;100.00
34586;BME280;20816;50.950;11.108;2023-02-01T03:24:10;98424.53;;;3.76;100.00
34586;BME280;20816;50.950;11.108;2023-02-01T03:26:42;98431.47;;;3.76;100.00
34586;BME280;20816;50.950;11.108;2023-02-01T03:29:18;98421.94;;;3.82;100.00
34586;BME280;20816;50.950;11.108;2023-02-01T03:31:48;98427.16;;;3.87;100.00
34586;BME280;20816;50.950;11.108;2023-02-01T03:34:15;98410.69;;;3.86;100.00
34586;BME280;20816;50.950;11.108;2023-02-01T03:36:54;98405.50;;;3.88;100.00
34586;BME280;20816;50.950;11.108;2023-02-01T03:41:59;98388.16;;;3.81;100.00
34586;BME280;20816;50.950;11.108;2023-02-01T03:44:31;98389.00;;;3.74;100.00
34586;BME280;20816;50.950;11.108;2023-02-01T03:47:03;98387.28;;;3.70;100.00
34586;BME280;20816;50.950;11.108;2023-02-01T03:49:36;98395.06;;;3.60;100.00
34586;BME280;20816;50.950;11.108;2023-02-01T03:52:06;98391.56;;;3.55;100.00
34586;BME280;20816;50.950;11.108;2023-02-01T03:54:36;98394.16;;;3.55;100.00
34586;BME280;20816;50.950;11.108;2023-02-01T03:57:08;98395.03;;;3.57;100.00
34586;BME280;20816;50.950;11.108;2023-02-01T03:59:43;98396.78;;;3.71;100.00
34586;BME280;20816;50.950;11.108;2023-02-01T04:02:11;98397.66;;;3.62;100.00
34586;BME280;20816;50.950;11.108;2023-02-01T04:04:38;98398.50;;;3.59;100.00
34586;BME280;20816;50.950;11.108;2023-02-01T04:07:04;98390.69;;;3.55;100.00
34586;BME280;20816;50.950;11.108;2023-02-01T04:09:31;98396.78;;;3.58;100.00
34586;BME280;20816;50.950;11.108;2023-02-01T04:11:58;98401.97;;;3.61;100.00
34586;BME280;20816;50.950;11.108;2023-02-01T04:14:24;98397.63;;;3.65;100.00
34586;BME280;20816;50.950;11.108;2023-02-01T04:16:51;98398.50;;;3.53;100.00
34586;BME280;20816;50.950;11.108;2023-02-01T04:19:17;98395.91;;;3.50;100.00
34586;BME280;20816;50.950;11.108;2023-02-01T04:21:44;98396.72;;;3.46;100.00
34586;BME280;20816;50.950;11.108;2023-02-01T04:24:11;98387.22;;;3.54;100.00
34586;BME280;20816;50.950;11.108;2023-02-01T04:26:38;98388.06;;;3.47;100.00
34586;BME280;20816;50.950;11.108;2023-02-01T04:29:04;98377.66;;;3.41;100.00
34586;BME280;20816;50.950;11.108;2023-02-01T04:31:31;98377.63;;;3.29;100.00
34586;BME280;20816;50.950;11.108;2023-02-01T04:33:58;98366.34;;;3.25;100.00
34586;BME280;20816;50.950;11.108;2023-02-01T04:36:25;98353.41;;;3.27;100.00
34586;BME280;20816;50.950;11.108;2023-02-01T04:38:52;98352.50;;;3.19;100.00
34586;BME280;20816;50.950;11.108;2023-02-01T04:41:19;98351.63;;;3.24;100.00
34586;BME280;20816;50.950;11.108;2023-02-01T04:43:47;98355.97;;;3.18;100.00
34586;BME280;20816;50.950;11.108;2023-02-01T04:46:14;98347.34;;;3.26;100.00
34586;BME280;20816;50.950;11.108;2023-02-01T04:48:41;98340.38;;;3.24;100.00
34586;BME280;20816;50.950;11.108;2023-02-01T04:51:09;98339.53;;;3.28;100.00
34586;BME280;20816;50.950;11.108;2023-02-01T04:53:36;98335.19;;;3.24;100.00
34586;BME280;20816;50.950;11.108;2023-02-01T04:56:03;98330.91;;;3.35;100.00
34586;BME280;20816;50.950;11.108;2023-02-01T04:58:30;98322.28;;;3.42;100.00
34586;BME280;20816;50.950;11.108;2023-02-01T05:00:57;98317.06;;;3.42;100.00
34586;BME280;20816;50.950;11.108;2023-02-01T05:03:24;98300.63;;;3.54;100.00
34586;BME280;20816;50.950;11.108;2023-02-01T05:05:50;98301.50;;;3.51;100.00
34586;BME280;20816;50.950;11.108;2023-02-01T05:08:20;98295.41;;;3.66;100.00
34586;BME280;20816;50.950;11.108;2023-02-01T05:10:48;98293.69;;;3.62;100.00
34586;BME280;20816;50.950;11.108;2023-02-01T05:13:15;98278.13;;;3.62;100.00
34586;BME280;20816;50.950;11.108;2023-02-01T05:16:01;98283.31;;;3.67;100.00
34586;BME280;20816;50.950;11.108;2023-02-01T05:18:28;98290.22;;;3.66;100.00
34586;BME280;20816;50.950;11.108;2023-02-01T05:20:55;98295.44;;;3.64;100.00
34586;BME280;20816;50.950;11.108;2023-02-01T05:23:21;98288.50;;;3.62;100.00
34586;BME280;20816;50.950;11.108;2023-02-01T05:25:48;98278.09;;;3.65;100.00
34586;BME280;20816;50.950;11.108;2023-02-01T05:28:14;98285.03;;;3.66;100.00
34586;BME280;20816;50.950;11.108;2023-02-01T05:30:41;98292.84;;;3.77;100.00
34586;BME280;20816;50.950;11.108;2023-02-01T05:33:08;98295.44;;;3.84;100.00
34586;BME280;20816;50.950;11.108;2023-02-01T05:35:35;98277.25;;;3.86;100.00
34586;BME280;20816;50.950;11.108;2023-02-01T05:38:01;98288.53;;;3.92;100.00
34586;BME280;20816;50.950;11.108;2023-02-01T05:40:28;98286.78;;;3.96;100.00
34586;BME280;20816;50.950;11.108;2023-02-01T05:42:55;98291.13;;;3.94;100.00
34586;BME280;20816;50.950;11.108;2023-02-01T05:45:21;98289.38;;;3.99;100.00
34586;BME280;20816;50.950;11.108;2023-02-01T05:47:48;98281.56;;;4.05;100.00
34586;BME280;20816;50.950;11.108;2023-02-01T05:50:16;98280.69;;;4.12;99.93
34586;BME280;20816;50.950;11.108;2023-02-01T05:52:43;98276.34;;;4.07;99.74
34586;BME280;20816;50.950;11.108;2023-02-01T05:55:09;98263.38;;;3.98;99.49
34586;BME280;20816;50.950;11.108;2023-02-01T05:57:36;98275.50;;;3.94;99.61
34586;BME280;20816;50.950;11.108;2023-02-01T06:00:03;98266.00;;;3.85;100.00
34586;BME280;20816;50.950;11.108;2023-02-01T06:02:30;98273.75;;;3.90;99.59
34586;BME280;20816;50.950;11.108;2023-02-01T06:04:57;98277.22;;;4.04;98.51
34586;BME280;20816;50.950;11.108;2023-02-01T06:07:24;98265.97;;;4.08;97.45
34586;BME280;20816;50.950;11.108;2023-02-01T06:09:52;98271.13;;;4.14;96.91
34586;BME280;20816;50.950;11.108;2023-02-01T06:12:18;98268.56;;;4.11;97.06
34586;BME280;20816;50.950;11.108;2023-02-01T06:14:45;98273.75;;;4.14;96.89
34586;BME280;20816;50.950;11.108;2023-02-01T06:17:12;98272.03;;;4.16;96.26
34586;BME280;20816;50.950;11.108;2023-02-01T06:19:38;98266.81;;;4.16;96.60
34586;BME280;20816;50.950;11.108;2023-02-01T06:22:06;98259.03;;;4.16;96.75
34586;BME280;20816;50.950;11.108;2023-02-01T06:24:33;98264.22;;;4.13;96.84
34586;BME280;20816;50.950;11.108;2023-02-01T06:27:00;98252.94;;;4.17;95.80
34586;BME280;20816;50.950;11.108;2023-02-01T06:29:26;98256.41;;;4.18;95.68
34586;BME280;20816;50.950;11.108;2023-02-01T06:31:53;98261.63;;;4.16;95.60
34586;BME280;20816;50.950;11.108;2023-02-01T06:34:20;98248.59;;;4.21;94.55
34586;BME280;20816;50.950;11.108;2023-02-01T06:36:48;98252.06;;;4.20;94.35
34586;BME280;20816;50.950;11.108;2023-02-01T06:39:15;98240.78;;;4.22;94.48
34586;BME280;20816;50.950;11.108;2023-02-01T06:41:45;98239.91;;;4.28;93.46
34586;BME280;20816;50.950;11.108;2023-02-01T06:44:12;98233.88;;;4.18;93.97
34586;BME280;20816;50.950;11.108;2023-02-01T06:46:39;98247.72;;;4.22;93.88
34586;BME280;20816;50.950;11.108;2023-02-01T06:49:06;98239.94;;;4.25;93.59
34586;BME280;20816;50.950;11.108;2023-02-01T06:51:34;98250.31;;;4.20;93.94
34586;BME280;20816;50.950;11.108;2023-02-01T06:54:01;98244.28;;;4.18;93.86
34586;BME280;20816;50.950;11.108;2023-02-01T06:56:27;98245.16;;;4.08;94.68
34586;BME280;20816;50.950;11.108;2023-02-01T06:58:54;98242.59;;;3.93;95.49
34586;BME280;20816;50.950;11.108;2023-02-01T07:01:21;98248.63;;;4.07;95.07
34586;BME280;20816;50.950;11.108;2023-02-01T07:03:51;98247.78;;;4.02;95.11
34586;BME280;20816;50.950;11.108;2023-02-01T07:06:18;98258.16;;;4.11;94.97
34586;BME280;20816;50.950;11.108;2023-02-01T07:08:44;98245.13;;;4.14;94.94
34586;BME280;20816;50.950;11.108;2023-02-01T07:11:13;98247.72;;;4.27;94.20
34586;BME280;20816;50.950;11.108;2023-02-01T07:13:40;98244.25;;;4.28;94.10
34586;BME280;20816;50.950;11.108;2023-02-01T07:16:11;98246.84;;;4.28;94.52
34586;BME280;20816;50.950;11.108;2023-02-01T07:18:38;98256.38;;;4.29;94.73
34586;BME280;20816;50.950;11.108;2023-02-01T07:21:05;98247.72;;;4.25;94.97
34586;BME280;20816;50.950;11.108;2023-02-01T07:23:32;98260.75;;;4.25;94.55
34586;BME280;20816;50.950;11.108;2023-02-01T07:26:01;98255.53;;;4.19;95.27
34586;BME280;20816;50.950;11.108;2023-02-01T07:28:30;98247.75;;;4.24;94.47
34586;BME280;20816;50.950;11.108;2023-02-01T07:31:09;98251.19;;;4.26;95.08
34586;BME280;20816;50.950;11.108;2023-02-01T07:33:37;98259.84;;;4.31;95.00
34586;BME280;20816;50.950;11.108;2023-02-01T07:36:06;98264.16;;;4.38;94.80
34586;BME280;20816;50.950;11.108;2023-02-01T07:38:33;98255.50;;;4.30;95.38
34586;BME280;20816;50.950;11.108;2023-02-01T07:41:02;98259.00;;;4.32;94.81
34586;BME280;20816;50.950;11.108;2023-02-01T07:43:29;98252.88;;;4.42;94.32
34586;BME280;20816;50.950;11.108;2023-02-01T07:45:56;98247.69;;;4.42;94.63
34586;BME280;20816;50.950;11.108;2023-02-01T07:48:24;98239.00;;;4.43;94.36
34586;BME280;20816;50.950;11.108;2023-02-01T07:51:14;98239.00;;;4.41;94.32
34586;BME280;20816;50.950;11.108;2023-02-01T07:53:42;98225.09;;;4.47;94.62
34586;BME280;20816;50.950;11.108;2023-02-01T07:56:15;98235.50;;;4.50;94.61
34586;BME280;20816;50.950;11.108;2023-02-01T07:58:42;98236.38;;;4.46;93.80
34586;BME280;20816;50.950;11.108;2023-02-01T08:01:20;98238.97;;;4.46;95.21
34586;BME280;20816;50.950;11.108;2023-02-01T08:03:48;98229.44;;;4.46;95.93
34586;BME280;20816;50.950;11.108;2023-02-01T08:06:15;98230.31;;;4.47;96.54
34586;BME280;20816;50.950;11.108;2023-02-01T08:08:42;98238.97;;;4.52;96.30
34586;BME280;20816;50.950;11.108;2023-02-01T08:11:12;98245.88;;;4.59;96.15
34586;BME280;20816;50.950;11.108;2023-02-01T08:13:39;98251.09;;;4.59;95.90
34586;BME280;20816;50.950;11.108;2023-02-01T08:16:07;98255.41;;;4.60;95.80
34586;BME280;20816;50.950;11.108;2023-02-01T08:18:36;98271.91;;;4.59;96.29
34586;BME280;20816;50.950;11.108;2023-02-01T08:21:05;98265.84;;;4.59;96.98
34586;BME280;20816;50.950;11.108;2023-02-01T08:23:33;98278.84;;;4.54;97.83
34586;BME280;20816;50.950;11.108;2023-02-01T08:28:42;98286.72;;;4.28;100.00
34586;BME280;20816;50.950;11.108;2023-02-01T08:31:12;98292.78;;;4.35;100.00
34586;BME280;20816;50.950;11.108;2023-02-01T08:33:42;98304.94;;;4.30;100.00
34586;BME280;20816;50.950;11.108;2023-02-01T08:36:10;98307.53;;;4.36;100.00
34586;BME280;20816;50.950;11.108;2023-02-01T08:38:38;98292.78;;;4.38;100.00
34586;BME280;20816;50.950;11.108;2023-02-01T08:41:16;98315.34;;;4.36;100.00
34586;BME280;20816;50.950;11.108;2023-02-01T08:43:44;98298.88;;;4.40;100.00
34586;BME280;20816;50.950;11.108;2023-02-01T08:46:11;98295.38;;;4.41;100.00
34586;BME280;20816;50.950;11.108;2023-02-01T08:48:38;98296.25;;;4.37;100.00
34586;BME280;20816;50.950;11.108;2023-02-01T08:51:08;98291.91;;;4.48;100.00
34586;BME280;20816;50.950;11.108;2023-02-01T08:53:36;98290.16;;;4.44;100.00
34586;BME280;20816;50.950;11.108;2023-02-01T08:56:03;98305.75;;;4.52;100.00
34586;BME280;20816;50.950;11.108;2023-02-01T08:58:30;98306.59;;;4.61;100.00
34586;BME280;20816;50.950;11.108;2023-02-01T09:00:57;98301.44;;;4.50;100.00
34586;BME280;20816;50.950;11.108;2023-02-01T09:03:23;98299.66;;;4.63;100.00
34586;BME280;20816;50.950;11.108;2023-02-01T09:05:50;98303.03;;;4.90;100.00
34586;BME280;20816;50.950;11.108;2023-02-01T09:08:19;98310.88;;;4.82;100.00
34586;BME280;20816;50.950;11.108;2023-02-01T09:10:46;98315.19;;;4.80;100.00
34586;BME280;20816;50.950;11.108;2023-02-01T09:13:13;98299.59;;;4.82;100.00
34586;BME280;20816;50.950;11.108;2023-02-01T09:15:40;98303.94;;;4.76;100.00
34586;BME280;20816;50.950;11.108;2023-02-01T09:18:06;98292.72;;;4.65;100.00
34586;BME280;20816;50.950;11.108;2023-02-01T09:20:33;98304.81;;;4.75;100.00
34586;BME280;20816;50.950;11.108;2023-02-01T09:23:00;98285.69;;;4.86;100.00
34586;BME280;20816;50.950;11.108;2023-02-01T09:25:28;98305.72;;;4.73;100.00
34586;BME280;20816;50.950;11.108;2023-02-01T09:27:54;98316.16;;;4.52;100.00
34586;BME280;20816;50.950;11.108;2023-02-01T09:30:21;98319.66;;;4.49;100.00
34586;BME280;20816;50.950;11.108;2023-02-01T09:32:48;98316.16;;;4.52;100.00
34586;BME280;20816;50.950;11.108;2023-02-01T09:35:15;98320.47;;;4.66;100.00
34586;BME280;20816;50.950;11.108;2023-02-01T09:37:42;98336.06;;;4.69;100.00
34586;BME280;20816;50.950;11.108;2023-02-01T09:40:14;98330.72;;;5.12;100.00
34586;BME280;20816;50.950;11.108;2023-02-01T09:43:18;98334.03;;;5.42;98.11
34586;BME280;20816;50.950;11.108;2023-02-01T09:46:02;98338.31;;;5.52;98.25
34586;BME280;20816;50.950;11.108;2023-02-01T09:48:36;98319.06;;;5.70;96.85
34586;BME280;20816;50.950;11.108;2023-02-01T09:51:10;98325.97;;;5.80;96.55
34586;BME280;20816;50.950;11.108;2023-02-01T09:53:41;98311.38;;;5.53;96.23
34586;BME280;20816;50.950;11.108;2023-02-01T09:56:17;98329.81;;;5.19;98.04
34586;BME280;20816;50.950;11.108;2023-02-01T10:01:21;98314.78;;;5.64;96.81
34586;BME280;20816;50.950;11.108;2023-02-01T10:07:49;98324.50;;;5.39;98.15
34586;BME280;20816;50.950;11.108;2023-02-01T10:10:36;98326.84;;;5.80;96.53
34586;BME280;20816;50.950;11.108;2023-02-01T10:19:00;98313.44;;;6.28;93.03
34586;BME280;20816;50.950;11.108;2023-02-01T10:27:01;98313.03;;;6.67;91.10
34586;BME280;20816;50.950;11.108;2023-02-01T10:29:35;98319.75;;;6.88;89.99
34586;BME280;20816;50.950;11.108;2023-02-01T10:32:10;98325.59;;;6.30;90.41
34586;BME280;20816;50.950;11.108;2023-02-01T10:34:38;98324.88;;;6.13;91.35
34586;BME280;20816;50.950;11.108;2023-02-01T10:37:28;98331.75;;;6.23;91.70
34586;BME280;20816;50.950;11.108;2023-02-01T10:39:58;98319.53;;;6.25;91.43
34586;BME280;20816;50.950;11.108;2023-02-01T10:42:28;98315.81;;;6.51;90.18
34586;BME280;20816;50.950;11.108;2023-02-01T10:44:59;98314.06;;;6.54;90.14
34586;BME280;20816;50.950;11.108;2023-02-01T10:47:28;98326.09;;;6.69;89.88
34586;BME280;20816;50.950;11.108;2023-02-01T10:52:49;98300.19;;;6.47;89.80
34586;BME280;20816;50.950;11.108;2023-02-01T10:57:59;98304.34;;;6.65;89.02
34586;BME280;20816;50.950;11.108;2023-02-01T11:00:28;98312.03;;;6.79;87.86
34586;BME280;20816;50.950;11.108;2023-02-01T11:03:00;98301.28;;;7.05;86.97
34586;BME280;20816;50.950;11.108;2023-02-01T11:05:26;98288.88;;;7.21;86.12
34586;BME280;20816;50.950;11.108;2023-02-01T11:07:54;98293.38;;;7.10;85.87
34586;BME280;20816;50.950;11.108;2023-02-01T11:10:40;98295.22;;;7.03;85.86
34586;BME280;20816;50.950;11.108;2023-02-01T11:13:16;98285.97;;;6.76;86.21
34586;BME280;20816;50.950;11.108;2023-02-01T11:15:44;98296.06;;;7.03;86.42
34586;BME280;20816;50.950;11.108;2023-02-01T11:18:27;98290.00;;;7.01;86.80
34586;BME280;20816;50.950;11.108;2023-02-01T11:20:54;98291.09;;;6.82;86.73
34586;BME280;20816;50.950;11.108;2023-02-01T11:23:24;98295.63;;;6.66;87.64
34586;BME280;20816;50.950;11.108;2023-02-01T11:25:59;98296.63;;;6.55;87.93
34586;BME280;20816;50.950;11.108;2023-02-01T11:28:30;98305.41;;;6.47;88.73
34586;BME280;20816;50.950;11.108;2023-02-01T11:31:05;98302.75;;;6.51;88.62
34586;BME280;20816;50.950;11.108;2023-02-01T11:33:36;98297.56;;;6.49;88.86
34586;BME280;20816;50.950;11.108;2023-02-01T11:36:09;98296.69;;;6.52;88.60
34586;BME280;20816;50.950;11.108;2023-02-01T11:38:38;98302.78;;;6.49;88.36
34586;BME280;20816;50.950;11.108;2023-02-01T11:41:34;98296.84;;;6.36;88.68
34586;BME280;20816;50.950;11.108;2023-02-01T11:44:19;98299.56;;;6.24;88.59
34586;BME280;20816;50.950;11.108;2023-02-01T11:46:46;98280.47;;;6.19;89.47
34586;BME280;20816;50.950;11.108;2023-02-01T11:49:25;98270.91;;;6.18;88.43
34586;BME280;20816;50.950;11.108;2023-02-01T11:52:18;98286.41;;;6.36;88.26
34586;BME280;20816;50.950;11.108;2023-02-01T12:00:43;98276.91;;;6.29;87.87
34586;BME280;20816;50.950;11.108;2023-02-01T12:06:27;98276.19;;;6.09;89.57
34586;BME280;20816;50.950;11.108;2023-02-01T12:09:21;98274.38;;;6.17;88.97
34586;BME280;20816;50.950;11.108;2023-02-01T12:14:52;98276.13;;;6.18;89.31
34586;BME280;20816;50.950;11.108;2023-02-01T12:25:42;98270.84;;;6.27;88.38
34586;BME280;20816;50.950;11.108;2023-02-01T12:33:50;98259.56;;;6.22;87.27
34586;BME280;20816;50.950;11.108;2023-02-01T12:36:41;98265.75;;;6.12;87.38
34586;BME280;20816;50.950;11.108;2023-02-01T12:44:56;98260.72;;;5.84;88.87
34586;BME280;20816;50.950;11.108;2023-02-01T12:47:31;98237.25;;;5.90;88.92
34586;BME280;20816;50.950;11.108;2023-02-01T12:55:22;98247.66;;;5.94;88.82
34586;BME280;20816;50.950;11.108;2023-02-01T12:58:01;98227.72;;;5.83;88.67
34586;BME280;20816;50.950;11.108;2023-02-01T13:00:44;98224.28;;;5.80;89.14
34586;BME280;20816;50.950;11.108;2023-02-01T13:06:01;98215.53;;;5.85;88.70
34586;BME280;20816;50.950;11.108;2023-02-01T13:08:38;98218.09;;;5.90;88.49
34586;BME280;20816;50.950;11.108;2023-02-01T13:11:27;98204.25;;;5.86;88.63
34586;BME280;20816;50.950;11.108;2023-02-01T13:16:42;98182.50;;;5.84;87.76
34586;BME280;20816;50.950;11.108;2023-02-01T13:19:17;98172.91;;;5.89;87.45
34586;BME280;20816;50.950;11.108;2023-02-01T13:21:56;98166.84;;;5.90;87.06
34586;BME280;20816;50.950;11.108;2023-02-01T13:24:30;98165.94;;;5.90;86.81
34586;BME280;20816;50.950;11.108;2023-02-01T13:26:58;98155.50;;;5.90;86.80
34586;BME280;20816;50.950;11.108;2023-02-01T13:29:25;98161.63;;;5.84;86.32
34586;BME280;20816;50.950;11.108;2023-02-01T13:34:49;98145.97;;;5.87;86.63
34586;BME280;20816;50.950;11.108;2023-02-01T13:40:36;98144.19;;;5.96;86.13
34586;BME280;20816;50.950;11.108;2023-02-01T13:43:12;98133.00;;;5.81;85.67
34586;BME280;20816;50.950;11.108;2023-02-01T13:45:46;98135.59;;;5.81;86.10
34586;BME280;20816;50.950;11.108;2023-02-01T13:48:20;98131.22;;;5.86;86.11
34586;BME280;20816;50.950;11.108;2023-02-01T13:50:54;98132.03;;;5.95;85.87
34586;BME280;20816;50.950;11.108;2023-02-01T13:53:32;98124.22;;;5.90;86.39
34586;BME280;20816;50.950;11.108;2023-02-01T13:58:40;98126.81;;;5.95;86.63
34586;BME280;20816;50.950;11.108;2023-02-01T14:09:11;98130.19;;;6.03;85.68
34586;BME280;20816;50.950;11.108;2023-02-01T14:19:37;98101.09;;;6.33;85.25
34586;BME280;20816;50.950;11.108;2023-02-01T14:24:56;98094.41;;;6.14;84.43
34586;BME280;20816;50.950;11.108;2023-02-01T14:27:29;98100.63;;;6.01;84.87
34586;BME280;20816;50.950;11.108;2023-02-01T14:29:59;98085.84;;;6.01;84.82
34586;BME280;20816;50.950;11.108;2023-02-01T14:32:47;98072.97;;;5.87;85.54
34586;BME280;20816;50.950;11.108;2023-02-01T14:35:33;98040.06;;;5.74;85.26
34586;BME280;20816;50.950;11.108;2023-02-01T14:38:01;98078.34;;;5.72;85.07
34586;BME280;20816;50.950;11.108;2023-02-01T14:40:34;98075.72;;;5.74;85.31
34586;BME280;20816;50.950;11.108;2023-02-01T14:43:02;98088.78;;;5.69;85.62
34586;BME280;20816;50.950;11.108;2023-02-01T14:55:43;98087.16;;;5.59;87.90
34586;BME280;20816;50.950;11.108;2023-02-01T15:01:06;98102.88;;;5.51;89.09
34586;BME280;20816;50.950;11.108;2023-02-01T15:03:47;98104.66;;;5.48;89.70
34586;BME280;20816;50.950;11.108;2023-02-01T15:06:29;98088.97;;;5.51;89.63
34586;BME280;20816;50.950;11.108;2023-02-01T15:09:04;98095.03;;;5.53;88.42
34586;BME280;20816;50.950;11.108;2023-02-01T15:14:37;98105.38;;;5.63;89.21
34586;BME280;20816;50.950;11.108;2023-02-01T15:17:21;98091.59;;;5.51;90.07
34586;BME280;20816;50.950;11.108;2023-02-01T15:19:59;98093.22;;;5.61;89.24
34586;BME280;20816;50.950;11.108;2023-02-01T15:22:28;98095.91;;;5.55;91.09
34586;BME280;20816;50.950;11.108;2023-02-01T15:24:59;98085.59;;;5.43;92.13
34586;BME280;20816;50.950;11.108;2023-02-01T15:27:29;98085.63;;;5.37;92.67
34586;BME280;20816;50.950;11.108;2023-02-01T15:30:08;98091.72;;;5.39;92.53
34586;BME280;20816;50.950;11.108;2023-02-01T15:32:42;98074.41;;;5.31;93.32